sensor_id;sensor_type;location;lat;lon;timestamp;noise_LAeq;noise_LA_min;noise_LA_max;noise_LA01;noise_LA95
42701;Laerm;28316;49.504;8.526;2023-04-01T00:00:57;40.02;38.18;43.19;;
42701;Laerm;28316;49.504;8.526;2023-04-01T00:03:24;40.01;37.70;42.59;;
42701;Laerm;28316;49.504;8.526;2023-04-01T00:05:51;39.92;38.21;41.41;;
42701;Laerm;28316;49.504;8.526;2023-04-01T00:08:18;39.98;38.05;44.39;;
42701;Laerm;28316;49.504;8.526;2023-04-01T00:10:43;39.89;38.21;41.82;;
42701;Laerm;28316;49.504;8.526;2023-04-01T00:13:09;39.94;38.21;43.14;;
42701;Laerm;28316;49.504;8.526;2023-04-01T00:15:35;39.96;38.21;41.96;;
42701;Laerm;28316;49.504;8.526;2023-04-01T00:18:01;39.97;38.05;42.09;;
42701;Laerm;28316;49.504;8.526;2023-04-01T00:20:28;39.98;37.70;42.47;;
42701;Laerm;28316;49.504;8.526;2023-04-01T00:22:54;40.10;38.21;50.35;;
42701;Laerm;28316;49.504;8.526;2023-04-01T00:25:21;40.03;38.21;42.47;;
42701;Laerm;28316;49.504;8.526;2023-04-01T00:27:47;40.12;38.37;44.47;;
42701;Laerm;28316;49.504;8.526;2023-04-01T00:30:13;40.15;38.67;41.96;;
42701;Laerm;28316;49.504;8.526;2023-04-01T00:32:39;40.19;38.52;43.54;;
42701;Laerm;28316;49.504;8.526;2023-04-01T00:35:05;40.27;38.52;43.63;;
42701;Laerm;28316;49.504;8.526;2023-04-01T00:37:33;40.15;38.37;41.75;;
42701;Laerm;28316;49.504;8.526;2023-04-01T00:39:59;40.19;38.37;43.63;;
42701;Laerm;28316;49.504;8.526;2023-04-01T00:42:25;40.36;38.37;43.72;;
42701;Laerm;28316;49.504;8.526;2023-04-01T00:44:53;40.31;38.81;41.82;;
42701;Laerm;28316;49.504;8.526;2023-04-01T00:47:21;40.28;38.37;42.35;;
42701;Laerm;28316;49.504;8.526;2023-04-01T00:49:50;40.42;38.81;43.24;;
42701;Laerm;28316;49.504;8.526;2023-04-01T00:52:21;40.54;39.08;43.00;;
42701;Laerm;28316;49.504;8.526;2023-04-01T00:54:50;40.56;38.81;41.96;;
42701;Laerm;28316;49.504;8.526;2023-04-01T00:57:31;40.55;39.08;44.07;;
42701;Laerm;28316;49.504;8.526;2023-04-01T00:59:59;40.58;38.81;43.86;;
42701;Laerm;28316;49.504;8.526;2023-04-01T01:02:25;40.53;38.95;42.29;;
42701;Laerm;28316;49.504;8.526;2023-04-01T01:04:51;40.59;38.95;45.83;;
42701;Laerm;28316;49.504;8.526;2023-04-01T01:10:31;40.63;38.81;43.29;;
42701;Laerm;28316;49.504;8.526;2023-04-01T01:18:35;40.66;38.95;41.96;;
42701;Laerm;28316;49.504;8.526;2023-04-01T01:27:14;40.79;39.21;43.94;;
42701;Laerm;28316;49.504;8.526;2023-04-01T01:30:11;40.77;39.08;48.90;;
42701;Laerm;28316;49.504;8.526;2023-04-01T01:33:13;40.76;39.46;42.59;;
42701;Laerm;28316;49.504;8.526;2023-04-01T01:35:50;40.81;39.21;42.41;;
42701;Laerm;28316;49.504;8.526;2023-04-01T01:38:23;40.92;39.46;45.93;;
42701;Laerm;28316;49.504;8.526;2023-04-01T01:40:51;40.83;39.34;42.29;;
42701;Laerm;28316;49.504;8.526;2023-04-01T01:43:30;40.75;39.08;42.03;;
42701;Laerm;28316;49.504;8.526;2023-04-01T01:46:01;40.77;38.95;42.16;;
42701;Laerm;28316;49.504;8.526;2023-04-01T01:48:29;40.93;39.34;47.40;;
42701;Laerm;28316;49.504;8.526;2023-04-01T01:50:56;41.01;39.34;48.64;;
42701;Laerm;28316;49.504;8.526;2023-04-01T01:53:22;41.03;39.46;45.46;;
42701;Laerm;28316;49.504;8.526;2023-04-01T01:55:48;41.03;39.46;44.23;;
42701;Laerm;28316;49.504;8.526;2023-04-01T01:58:25;41.06;39.70;43.81;;
42701;Laerm;28316;49.504;8.526;2023-04-01T02:00:58;41.10;39.34;46.55;;
42701;Laerm;28316;49.504;8.526;2023-04-01T02:03:29;41.38;39.78;53.49;;
42701;Laerm;28316;49.504;8.526;2023-04-01T02:05:58;41.17;39.23;44.35;;
42701;Laerm;28316;49.504;8.526;2023-04-01T02:08:34;41.21;39.92;44.19;;
42701;Laerm;28316;49.504;8.526;2023-04-01T02:11:12;41.16;39.81;45.17;;
42701;Laerm;28316;49.504;8.526;2023-04-01T02:13:50;41.17;39.34;45.51;;
42701;Laerm;28316;49.504;8.526;2023-04-01T02:16:40;41.25;39.81;53.25;;
42701;Laerm;28316;49.504;8.526;2023-04-01T02:19:10;41.20;39.81;47.48;;
42701;Laerm;28316;49.504;8.526;2023-04-01T02:21:38;41.23;39.81;46.18;;
42701;Laerm;28316;49.504;8.526;2023-04-01T02:24:10;41.10;39.58;44.65;;
42701;Laerm;28316;49.504;8.526;2023-04-01T02:26:37;41.46;39.81;51.29;;
42701;Laerm;28316;49.504;8.526;2023-04-01T02:29:05;41.33;39.70;46.80;;
42701;Laerm;28316;49.504;8.526;2023-04-01T02:31:32;41.14;39.70;46.95;;
42701;Laerm;28316;49.504;8.526;2023-04-01T02:33:59;41.05;39.58;42.65;;
42701;Laerm;28316;49.504;8.526;2023-04-01T02:36:26;40.99;39.58;43.49;;
42701;Laerm;28316;49.504;8.526;2023-04-01T02:38:52;41.05;39.34;43.86;;
42701;Laerm;28316;49.504;8.526;2023-04-01T02:41:20;41.02;39.70;42.76;;
42701;Laerm;28316;49.504;8.526;2023-04-01T02:43:46;41.00;39.70;44.43;;
42701;Laerm;28316;49.504;8.526;2023-04-01T02:46:12;40.98;39.08;46.35;;
42701;Laerm;28316;49.504;8.526;2023-04-01T02:48:38;41.04;39.46;45.77;;
42701;Laerm;28316;49.504;8.526;2023-04-01T02:51:03;40.94;39.46;43.14;;
42701;Laerm;28316;49.504;8.526;2023-04-01T02:53:29;40.94;39.21;45.72;;
42701;Laerm;28316;49.504;8.526;2023-04-01T02:55:55;41.08;39.46;46.43;;
42701;Laerm;28316;49.504;8.526;2023-04-01T02:58:21;41.46;39.34;54.53;;
42701;Laerm;28316;49.504;8.526;2023-04-01T03:00:47;41.13;39.46;48.37;;
42701;Laerm;28316;49.504;8.526;2023-04-01T03:03:13;41.03;39.08;52.70;;
42701;Laerm;28316;49.504;8.526;2023-04-01T03:05:39;40.70;38.81;51.40;;
42701;Laerm;28316;49.504;8.526;2023-04-01T03:08:05;40.77;38.67;50.52;;
42701;Laerm;28316;49.504;8.526;2023-04-01T03:10:31;40.57;38.60;49.74;;
42701;Laerm;28316;49.504;8.526;2023-04-01T03:12:57;40.52;38.67;43.86;;
42701;Laerm;28316;49.504;8.526;2023-04-01T03:15:23;40.71;38.81;46.28;;
42701;Laerm;28316;49.504;8.526;2023-04-01T03:17:49;40.53;38.99;44.31;;
42701;Laerm;28316;49.504;8.526;2023-04-01T03:20:15;40.56;39.08;44.69;;
42701;Laerm;28316;49.504;8.526;2023-04-01T03:22:41;40.58;38.52;45.20;;
42701;Laerm;28316;49.504;8.526;2023-04-01T03:25:07;40.42;38.67;44.65;;
42701;Laerm;28316;49.504;8.526;2023-04-01T03:27:34;40.32;38.52;44.03;;
42701;Laerm;28316;49.504;8.526;2023-04-01T03:30:03;40.35;38.52;43.09;;
42701;Laerm;28316;49.504;8.526;2023-04-01T03:32:29;40.32;38.37;47.02;;
42701;Laerm;28316;49.504;8.526;2023-04-01T03:34:55;40.41;38.52;46.33;;
42701;Laerm;28316;49.504;8.526;2023-04-01T03:37:22;40.18;38.21;43.44;;
42701;Laerm;28316;49.504;8.526;2023-04-01T03:39:48;40.12;37.52;43.09;;
42701;Laerm;28316;49.504;8.526;2023-04-01T03:42:14;40.16;38.21;44.35;;
42701;Laerm;28316;49.504;8.526;2023-04-01T03:44:40;40.16;38.21;44.54;;
42701;Laerm;28316;49.504;8.526;2023-04-01T03:47:05;40.18;38.21;43.99;;
42701;Laerm;28316;49.504;8.526;2023-04-01T03:49:32;40.37;38.37;45.94;;
42701;Laerm;28316;49.504;8.526;2023-04-01T03:51:58;40.17;38.21;45.97;;
42701;Laerm;28316;49.504;8.526;2023-04-01T03:54:24;40.17;38.67;44.47;;
42701;Laerm;28316;49.504;8.526;2023-04-01T03:56:50;40.42;38.52;46.69;;
42701;Laerm;28316;49.504;8.526;2023-04-01T03:59:16;40.29;38.21;44.47;;
42701;Laerm;28316;49.504;8.526;2023-04-01T04:01:41;40.29;38.52;43.34;;
42701;Laerm;28316;49.504;8.526;2023-04-01T04:04:10;40.41;38.81;44.39;;
42701;Laerm;28316;49.504;8.526;2023-04-01T04:06:36;40.34;38.67;42.53;;
42701;Laerm;28316;49.504;8.526;2023-04-01T04:09:02;40.56;38.67;46.05;;
42701;Laerm;28316;49.504;8.526;2023-04-01T04:11:27;40.53;38.81;48.46;;
42701;Laerm;28316;49.504;8.526;2023-04-01T04:13:53;40.37;38.67;46.78;;
42701;Laerm;28316;49.504;8.526;2023-04-01T04:16:19;40.37;38.52;45.51;;
42701;Laerm;28316;49.504;8.526;2023-04-01T04:18:45;40.36;38.52;45.72;;
42701;Laerm;28316;49.504;8.526;2023-04-01T04:21:14;40.48;38.81;45.57;;
42701;Laerm;28316;49.504;8.526;2023-04-01T04:23:41;40.64;38.81;48.57;;
42701;Laerm;28316;49.504;8.526;2023-04-01T04:26:14;40.66;39.21;43.72;;
42701;Laerm;28316;49.504;8.526;2023-04-01T04:28:40;40.72;38.95;45.80;;
42701;Laerm;28316;49.504;8.526;2023-04-01T04:31:06;40.65;39.21;44.43;;
42701;Laerm;28316;49.504;8.526;2023-04-01T04:33:33;40.72;38.95;47.42;;
42701;Laerm;28316;49.504;8.526;2023-04-01T04:35:59;40.84;38.95;48.87;;
42701;Laerm;28316;49.504;8.526;2023-04-01T04:38:26;40.76;39.21;42.79;;
42701;Laerm;28316;49.504;8.526;2023-04-01T04:40:53;40.88;39.34;44.76;;
42701;Laerm;28316;49.504;8.526;2023-04-01T04:43:19;40.95;39.21;45.48;;
42701;Laerm;28316;49.504;8.526;2023-04-01T04:45:45;40.89;39.21;44.11;;
42701;Laerm;28316;49.504;8.526;2023-04-01T04:48:14;40.81;39.34;44.87;;
42701;Laerm;28316;49.504;8.526;2023-04-01T04:50:45;40.72;38.81;42.98;;
42701;Laerm;28316;49.504;8.526;2023-04-01T04:53:12;40.58;39.21;44.19;;
42701;Laerm;28316;49.504;8.526;2023-04-01T04:55:47;40.58;38.95;46.33;;
42701;Laerm;28316;49.504;8.526;2023-04-01T04:58:14;40.32;38.81;46.07;;
42701;Laerm;28316;49.504;8.526;2023-04-01T05:00:40;40.34;38.52;47.48;;
42701;Laerm;28316;49.504;8.526;2023-04-01T05:03:06;40.10;38.21;41.61;;
42701;Laerm;28316;49.504;8.526;2023-04-01T05:05:31;40.05;38.37;42.47;;
42701;Laerm;28316;49.504;8.526;2023-04-01T05:07:57;40.00;38.21;44.43;;
42701;Laerm;28316;49.504;8.526;2023-04-01T05:10:23;39.86;37.88;44.03;;
42701;Laerm;28316;49.504;8.526;2023-04-01T05:12:49;39.93;37.88;45.27;;
42701;Laerm;28316;49.504;8.526;2023-04-01T05:15:15;39.86;37.88;44.54;;
42701;Laerm;28316;49.504;8.526;2023-04-01T05:17:41;39.87;37.88;43.54;;
42701;Laerm;28316;49.504;8.526;2023-04-01T05:20:07;39.76;37.88;41.89;;
42701;Laerm;28316;49.504;8.526;2023-04-01T05:22:33;39.70;37.88;42.09;;
42701;Laerm;28316;49.504;8.526;2023-04-01T05:24:59;39.78;37.88;45.20;;
42701;Laerm;28316;49.504;8.526;2023-04-01T05:27:25;39.70;38.05;41.61;;
42701;Laerm;28316;49.504;8.526;2023-04-01T05:29:51;39.65;37.52;41.22;;
42701;Laerm;28316;49.504;8.526;2023-04-01T05:32:16;39.61;37.70;41.89;;
42701;Laerm;28316;49.504;8.526;2023-04-01T05:34:42;39.57;37.52;41.53;;
42701;Laerm;28316;49.504;8.526;2023-04-01T05:37:08;39.59;37.70;41.82;;
42701;Laerm;28316;49.504;8.526;2023-04-01T05:39:38;39.60;37.52;41.14;;
42701;Laerm;28316;49.504;8.526;2023-04-01T05:42:06;39.59;37.52;41.82;;
42701;Laerm;28316;49.504;8.526;2023-04-01T05:44:33;39.56;37.52;41.89;;
42701;Laerm;28316;49.504;8.526;2023-04-01T05:46:59;39.57;37.70;43.19;;
42701;Laerm;28316;49.504;8.526;2023-04-01T05:49:25;39.64;37.70;43.19;;
42701;Laerm;28316;49.504;8.526;2023-04-01T05:51:51;39.63;37.52;42.93;;
42701;Laerm;28316;49.504;8.526;2023-04-01T05:54:17;39.57;37.70;41.96;;
42701;Laerm;28316;49.504;8.526;2023-04-01T05:56:43;39.63;37.70;41.14;;
42701;Laerm;28316;49.504;8.526;2023-04-01T05:59:11;39.65;37.52;41.30;;
42701;Laerm;28316;49.504;8.526;2023-04-01T06:01:37;39.67;37.52;43.90;;
42701;Laerm;28316;49.504;8.526;2023-04-01T06:04:03;39.64;37.52;41.61;;
42701;Laerm;28316;49.504;8.526;2023-04-01T06:06:30;39.64;37.88;41.30;;
42701;Laerm;28316;49.504;8.526;2023-04-01T06:09:24;39.66;37.88;42.76;;
42701;Laerm;28316;49.504;8.526;2023-04-01T06:14:32;39.67;37.70;41.61;;
42701;Laerm;28316;49.504;8.526;2023-04-01T06:20:27;39.70;37.32;42.22;;
42701;Laerm;28316;49.504;8.526;2023-04-01T06:29:50;39.82;37.70;42.09;;
42701;Laerm;28316;49.504;8.526;2023-04-01T06:47:36;39.97;38.21;43.81;;
42701;Laerm;28316;49.504;8.526;2023-04-01T06:50:23;40.24;38.32;48.95;;
42701;Laerm;28316;49.504;8.526;2023-04-01T06:53:08;40.04;38.05;42.47;;
42701;Laerm;28316;49.504;8.526;2023-04-01T06:55:56;40.09;38.37;46.07;;
42701;Laerm;28316;49.504;8.526;2023-04-01T06:58:34;40.08;38.21;43.09;;
42701;Laerm;28316;49.504;8.526;2023-04-01T07:01:06;40.06;38.05;42.65;;
42701;Laerm;28316;49.504;8.526;2023-04-01T07:03:41;40.04;37.88;43.54;;
42701;Laerm;28316;49.504;8.526;2023-04-01T07:06:30;40.12;38.52;42.88;;
42701;Laerm;28316;49.504;8.526;2023-04-01T07:09:02;40.18;38.21;45.91;;
42701;Laerm;28316;49.504;8.526;2023-04-01T07:11:36;40.19;38.52;42.65;;
42701;Laerm;28316;49.504;8.526;2023-04-01T07:20:36;40.45;38.21;54.58;;
42701;Laerm;28316;49.504;8.526;2023-04-01T07:22:41;40.30;38.37;50.54;;
42701;Laerm;28316;49.504;8.526;2023-04-01T07:25:53;40.06;37.88;45.04;;
42701;Laerm;28316;49.504;8.526;2023-04-01T07:28:20;39.97;38.05;41.68;;
42701;Laerm;28316;49.504;8.526;2023-04-01T07:36:47;40.13;38.37;44.83;;
42701;Laerm;28316;49.504;8.526;2023-04-01T07:51:19;39.92;38.05;41.61;;
42701;Laerm;28316;49.504;8.526;2023-04-01T07:53:50;39.89;37.70;41.38;;
42701;Laerm;28316;49.504;8.526;2023-04-01T07:56:34;40.20;38.18;51.17;;
42701;Laerm;28316;49.504;8.526;2023-04-01T07:59:21;39.87;37.70;41.61;;
42701;Laerm;28316;49.504;8.526;2023-04-01T08:02:33;39.86;37.88;42.16;;
42701;Laerm;28316;49.504;8.526;2023-04-01T08:08:06;39.91;38.05;42.16;;
42701;Laerm;28316;49.504;8.526;2023-04-01T08:10:54;39.94;37.88;41.61;;
42701;Laerm;28316;49.504;8.526;2023-04-01T08:13:39;39.87;38.05;41.68;;
42701;Laerm;28316;49.504;8.526;2023-04-01T08:16:26;39.85;38.02;47.30;;
42701;Laerm;28316;49.504;8.526;2023-04-01T08:21:41;39.62;37.32;43.77;;
42701;Laerm;28316;49.504;8.526;2023-04-01T08:24:34;39.43;37.32;43.00;;
42701;Laerm;28316;49.504;8.526;2023-04-01T08:27:09;39.29;37.32;41.75;;
42701;Laerm;28316;49.504;8.526;2023-04-01T08:32:12;39.15;36.91;42.03;;
42701;Laerm;28316;49.504;8.526;2023-04-01T08:34:46;39.03;36.45;42.76;;
42701;Laerm;28316;49.504;8.526;2023-04-01T08:37:21;38.96;36.20;40.62;;
42701;Laerm;28316;49.504;8.526;2023-04-01T08:39:54;38.91;35.94;40.79;;
42701;Laerm;28316;49.504;8.526;2023-04-01T08:42:36;38.91;36.45;41.96;;
42701;Laerm;28316;49.504;8.526;2023-04-01T08:54:46;38.84;36.45;40.98;;
42701;Laerm;28316;49.504;8.526;2023-04-01T08:57:38;39.00;36.20;42.93;;
42701;Laerm;28316;49.504;8.526;2023-04-01T09:12:50;38.83;35.66;41.30;;
42701;Laerm;28316;49.504;8.526;2023-04-01T09:19:02;38.79;36.45;40.62;;
42701;Laerm;28316;49.504;8.526;2023-04-01T09:25:02;38.77;36.20;40.98;;
42701;Laerm;28316;49.504;8.526;2023-04-01T09:28:15;38.74;35.94;41.38;;
42701;Laerm;28316;49.504;8.526;2023-04-01T09:36:57;38.48;35.94;40.62;;
42701;Laerm;28316;49.504;8.526;2023-04-01T09:39:45;38.52;35.94;40.36;;
42701;Laerm;28316;49.504;8.526;2023-04-01T10:04:17;38.56;35.94;40.71;;
42701;Laerm;28316;49.504;8.526;2023-04-01T10:36:54;38.73;36.45;40.80;;
42701;Laerm;28316;49.504;8.526;2023-04-01T10:45:52;38.69;36.20;40.71;;
42701;Laerm;28316;49.504;8.526;2023-04-01T11:01:40;38.69;35.66;40.71;;
42701;Laerm;28316;49.504;8.526;2023-04-01T11:08:49;38.70;35.94;40.62;;
42701;Laerm;28316;49.504;8.526;2023-04-01T11:17:39;38.78;36.45;40.80;;
42701;Laerm;28316;49.504;8.526;2023-04-01T11:29:49;39.02;36.45;40.98;;
42701;Laerm;28316;49.504;8.526;2023-04-01T11:41:20;39.11;36.91;41.75;;
42701;Laerm;28316;49.504;8.526;2023-04-01T11:44:11;39.35;37.12;45.57;;
42701;Laerm;28316;49.504;8.526;2023-04-01T11:53:23;39.52;37.52;41.68;;
42701;Laerm;28316;49.504;8.526;2023-04-01T11:56:07;39.96;38.02;43.94;;
42701;Laerm;28316;49.504;8.526;2023-04-01T12:07:35;40.62;39.08;42.93;;
42701;Laerm;28316;49.504;8.526;2023-04-01T12:10:26;40.85;39.08;45.99;;
42701;Laerm;28316;49.504;8.526;2023-04-01T12:13:14;41.70;39.21;55.86;;
42701;Laerm;28316;49.504;8.526;2023-04-01T12:16:20;41.34;39.46;55.67;;
42701;Laerm;28316;49.504;8.526;2023-04-01T12:27:26;41.36;39.81;47.30;;
42701;Laerm;28316;49.504;8.526;2023-04-01T12:33:04;41.41;39.58;50.77;;
42701;Laerm;28316;49.504;8.526;2023-04-01T12:36:10;41.46;39.92;49.39;;
42701;Laerm;28316;49.504;8.526;2023-04-01T12:50:28;41.67;40.13;49.74;;
42701;Laerm;28316;49.504;8.526;2023-04-01T12:56:40;41.69;40.03;54.89;;
42701;Laerm;28316;49.504;8.526;2023-04-01T13:02:22;41.85;40.13;53.99;;
42701;Laerm;28316;49.504;8.526;2023-04-01T13:05:20;41.58;40.03;48.85;;
42701;Laerm;28316;49.504;8.526;2023-04-01T13:08:22;41.38;39.58;47.12;;
42701;Laerm;28316;49.504;8.526;2023-04-01T13:17:22;41.29;39.58;46.25;;
42701;Laerm;28316;49.504;8.526;2023-04-01T13:25:53;41.82;39.70;54.90;;
42701;Laerm;28316;49.504;8.526;2023-04-01T13:28:30;41.72;39.34;55.25;;
42701;Laerm;28316;49.504;8.526;2023-04-01T13:37:23;41.26;39.34;48.73;;
42701;Laerm;28316;49.504;8.526;2023-04-01T13:43:04;41.40;39.70;48.71;;
42701;Laerm;28316;49.504;8.526;2023-04-01T13:55:17;41.21;39.81;44.47;;
42701;Laerm;28316;49.504;8.526;2023-04-01T14:00:54;41.40;39.92;50.89;;
42701;Laerm;28316;49.504;8.526;2023-04-01T14:06:36;41.26;39.70;49.80;;
42701;Laerm;28316;49.504;8.526;2023-04-01T14:09:11;41.12;39.81;43.86;;
42701;Laerm;28316;49.504;8.526;2023-04-01T14:21:24;41.51;39.46;57.92;;
42701;Laerm;28316;49.504;8.526;2023-04-01T14:33:22;40.55;38.37;47.48;;
42701;Laerm;28316;49.504;8.526;2023-04-01T14:39:00;40.94;39.34;43.54;;
42701;Laerm;28316;49.504;8.526;2023-04-01T14:42:02;41.38;38.95;52.53;;
42701;Laerm;28316;49.504;8.526;2023-04-01T14:50:12;41.09;39.68;44.43;;
42701;Laerm;28316;49.504;8.526;2023-04-01T14:52:44;40.99;39.46;44.31;;
42701;Laerm;28316;49.504;8.526;2023-04-01T14:58:13;41.63;39.58;53.28;;
42701;Laerm;28316;49.504;8.526;2023-04-01T15:09:48;41.17;39.81;46.66;;
42701;Laerm;28316;49.504;8.526;2023-04-01T15:15:49;41.28;39.58;51.36;;
42701;Laerm;28316;49.504;8.526;2023-04-01T15:28:03;41.10;39.70;44.31;;
42701;Laerm;28316;49.504;8.526;2023-04-01T15:30:57;41.13;39.70;43.04;;
42701;Laerm;28316;49.504;8.526;2023-04-01T15:36:41;41.29;39.58;48.81;;
42701;Laerm;28316;49.504;8.526;2023-04-01T15:39:20;41.26;39.92;45.63;;
42701;Laerm;28316;49.504;8.526;2023-04-01T15:47:32;41.39;40.03;45.17;;
42701;Laerm;28316;49.504;8.526;2023-04-01T15:50:45;41.56;39.34;54.05;;
42701;Laerm;28316;49.504;8.526;2023-04-01T15:59:09;41.69;40.13;55.41;;
42701;Laerm;28316;49.504;8.526;2023-04-01T16:01:51;41.82;40.43;49.55;;
42701;Laerm;28316;49.504;8.526;2023-04-01T16:05:25;41.62;40.33;47.42;;
42701;Laerm;28316;49.504;8.526;2023-04-01T16:22:09;41.27;39.81;46.25;;
42701;Laerm;28316;49.504;8.526;2023-04-01T16:24:44;41.28;39.58;50.61;;
42701;Laerm;28316;49.504;8.526;2023-04-01T16:27:37;41.22;39.70;44.19;;
42701;Laerm;28316;49.504;8.526;2023-04-01T16:30:34;41.17;39.70;44.62;;
42701;Laerm;28316;49.504;8.526;2023-04-01T16:33:22;41.23;39.81;50.23;;
42701;Laerm;28316;49.504;8.526;2023-04-01T16:35:57;41.64;39.70;56.25;;
42701;Laerm;28316;49.504;8.526;2023-04-01T16:41:32;41.17;39.46;42.53;;
42701;Laerm;28316;49.504;8.526;2023-04-01T16:44:24;41.18;39.81;43.77;;
42701;Laerm;28316;49.504;8.526;2023-04-01T16:46:58;41.41;40.03;47.88;;
42701;Laerm;28316;49.504;8.526;2023-04-01T16:49:40;41.51;39.92;52.60;;
42701;Laerm;28316;49.504;8.526;2023-04-01T16:55:01;41.47;39.92;46.13;;
42701;Laerm;28316;49.504;8.526;2023-04-01T16:57:51;41.66;40.03;51.06;;
42701;Laerm;28316;49.504;8.526;2023-04-01T17:00:37;41.78;40.23;48.55;;
42701;Laerm;28316;49.504;8.526;2023-04-01T17:03:44;41.55;40.03;45.94;;
42701;Laerm;28316;49.504;8.526;2023-04-01T17:06:48;41.49;40.13;42.65;;
42701;Laerm;28316;49.504;8.526;2023-04-01T17:10:16;41.46;40.03;43.24;;
42701;Laerm;28316;49.504;8.526;2023-04-01T17:15:39;41.50;39.81;43.24;;
42701;Laerm;28316;49.504;8.526;2023-04-01T17:19:13;41.55;40.13;44.80;;
42701;Laerm;28316;49.504;8.526;2023-04-01T17:21:57;41.69;40.43;45.54;;
42701;Laerm;28316;49.504;8.526;2023-04-01T17:30:33;41.64;40.13;45.72;;
42701;Laerm;28316;49.504;8.526;2023-04-01T17:39:10;41.58;40.13;44.83;;
42701;Laerm;28316;49.504;8.526;2023-04-01T17:42:01;41.76;40.33;52.09;;
42701;Laerm;28316;49.504;8.526;2023-04-01T17:50:24;41.63;40.03;46.50;;
42701;Laerm;28316;49.504;8.526;2023-04-01T17:53:28;41.58;40.13;45.11;;
42701;Laerm;28316;49.504;8.526;2023-04-01T17:58:55;41.43;39.92;45.42;;
42701;Laerm;28316;49.504;8.526;2023-04-01T18:14:07;41.32;39.92;45.42;;
42701;Laerm;28316;49.504;8.526;2023-04-01T18:16:43;41.31;40.03;42.93;;
42701;Laerm;28316;49.504;8.526;2023-04-01T18:19:41;41.25;39.68;43.99;;
42701;Laerm;28316;49.504;8.526;2023-04-01T18:22:38;41.30;39.46;45.77;;
42701;Laerm;28316;49.504;8.526;2023-04-01T18:25:22;41.22;39.92;43.55;;
42701;Laerm;28316;49.504;8.526;2023-04-01T18:28:38;39.58;35.04;43.72;;
42701;Laerm;28316;49.504;8.526;2023-04-01T18:31:20;39.06;35.04;42.03;;
42701;Laerm;28316;49.504;8.526;2023-04-01T18:36:51;37.72;33.44;56.01;;
42701;Laerm;28316;49.504;8.526;2023-04-01T18:39:39;37.15;32.35;39.92;;
42701;Laerm;28316;49.504;8.526;2023-04-01T18:51:34;37.75;33.90;40.43;;
42701;Laerm;28316;49.504;8.526;2023-04-01T18:54:24;38.45;35.66;40.43;;
42701;Laerm;28316;49.504;8.526;2023-04-01T18:57:10;38.63;35.94;40.98;;
42701;Laerm;28316;49.504;8.526;2023-04-01T18:59:50;38.74;36.20;40.62;;
42701;Laerm;28316;49.504;8.526;2023-04-01T19:02:38;38.76;35.94;40.98;;
42701;Laerm;28316;49.504;8.526;2023-04-01T19:05:31;39.01;36.45;40.89;;
42701;Laerm;28316;49.504;8.526;2023-04-01T19:08:27;38.84;35.36;41.22;;
42701;Laerm;28316;49.504;8.526;2023-04-01T19:20:29;38.80;35.94;40.80;;
42701;Laerm;28316;49.504;8.526;2023-04-01T19:26:14;38.86;36.69;40.63;;
42701;Laerm;28316;49.504;8.526;2023-04-01T19:28:48;38.85;36.45;40.89;;
42701;Laerm;28316;49.504;8.526;2023-04-01T19:38:28;39.07;36.91;40.71;;
42701;Laerm;28316;49.504;8.526;2023-04-01T19:41:37;39.05;36.91;41.06;;
42701;Laerm;28316;49.504;8.526;2023-04-01T19:45:17;38.23;34.69;40.80;;
42701;Laerm;28316;49.504;8.526;2023-04-01T19:50:55;37.05;32.00;39.81;;
42701;Laerm;28316;49.504;8.526;2023-04-01T19:56:23;38.47;35.94;40.53;;
42701;Laerm;28316;49.504;8.526;2023-04-01T19:59:19;38.63;36.20;40.43;;
42701;Laerm;28316;49.504;8.526;2023-04-01T20:02:38;38.73;36.45;41.06;;
42701;Laerm;28316;49.504;8.526;2023-04-01T20:14:18;39.16;37.12;41.14;;
42701;Laerm;28316;49.504;8.526;2023-04-01T20:17:00;39.15;36.91;40.89;;
42701;Laerm;28316;49.504;8.526;2023-04-01T20:22:08;39.20;36.69;41.22;;
42701;Laerm;28316;49.504;8.526;2023-04-01T20:24:43;39.21;37.12;40.89;;
42701;Laerm;28316;49.504;8.526;2023-04-01T20:27:19;39.25;37.12;40.89;;
42701;Laerm;28316;49.504;8.526;2023-04-01T20:32:54;39.23;36.69;41.14;;
42701;Laerm;28316;49.504;8.526;2023-04-01T20:42:00;39.20;36.91;40.98;;
42701;Laerm;28316;49.504;8.526;2023-04-01T20:50:36;39.09;36.69;40.71;;
42701;Laerm;28316;49.504;8.526;2023-04-01T20:53:30;38.98;36.20;41.06;;
42701;Laerm;28316;49.504;8.526;2023-04-01T20:56:35;38.97;36.45;40.80;;
42701;Laerm;28316;49.504;8.526;2023-04-01T20:59:35;38.98;36.91;40.98;;
42701;Laerm;28316;49.504;8.526;2023-04-01T21:05:37;38.97;36.45;41.14;;
42701;Laerm;28316;49.504;8.526;2023-04-01T21:08:31;38.90;36.69;40.71;;
42701;Laerm;28316;49.504;8.526;2023-04-01T21:20:38;38.57;35.94;40.80;;
42701;Laerm;28316;49.504;8.526;2023-04-01T21:26:19;38.63;36.20;40.80;;
42701;Laerm;28316;49.504;8.526;2023-04-01T21:52:53;38.87;36.45;40.96;;
42701;Laerm;28316;49.504;8.526;2023-04-01T21:56:05;38.86;36.20;40.71;;
42701;Laerm;28316;49.504;8.526;2023-04-01T21:59:16;38.81;36.45;40.80;;
42701;Laerm;28316;49.504;8.526;2023-04-01T22:04:40;38.77;36.20;40.62;;
42701;Laerm;28316;49.504;8.526;2023-04-01T22:07:19;38.77;36.45;40.80;;
42701;Laerm;28316;49.504;8.526;2023-04-01T22:10:15;38.70;36.20;40.71;;
42701;Laerm;28316;49.504;8.526;2023-04-01T22:13:07;38.65;35.94;40.71;;
42701;Laerm;28316;49.504;8.526;2023-04-01T22:21:39;38.60;36.10;40.53;;
42701;Laerm;28316;49.504;8.526;2023-04-01T22:24:26;38.65;35.94;40.80;;
42701;Laerm;28316;49.504;8.526;2023-04-01T22:35:10;38.65;36.20;40.71;;
42701;Laerm;28316;49.504;8.526;2023-04-01T22:41:20;38.68;36.20;40.71;;
42701;Laerm;28316;49.504;8.526;2023-04-01T22:43:49;38.70;36.20;40.62;;
42701;Laerm;28316;49.504;8.526;2023-04-01T22:49:28;38.68;36.20;40.53;;
42701;Laerm;28316;49.504;8.526;2023-04-01T22:54:54;38.71;36.20;40.62;;
42701;Laerm;28316;49.504;8.526;2023-04-01T23:00:26;38.75;35.94;40.62;;
42701;Laerm;28316;49.504;8.526;2023-04-01T23:05:56;38.70;36.45;40.98;;
42701;Laerm;28316;49.504;8.526;2023-04-01T23:11:05;38.62;35.94;40.62;;
42701;Laerm;28316;49.504;8.526;2023-04-01T23:13:37;38.51;35.94;40.71;;
42701;Laerm;28316;49.504;8.526;2023-04-01T23:16:06;38.37;35.66;40.53;;
42701;Laerm;28316;49.504;8.526;2023-04-01T23:18:52;38.34;35.86;40.71;;
42701;Laerm;28316;49.504;8.526;2023-04-01T23:21:40;37.87;33.90;40.53;;
42701;Laerm;28316;49.504;8.526;2023-04-01T23:24:30;37.41;33.44;50.07;;
42701;Laerm;28316;49.504;8.526;2023-04-01T23:27:20;37.24;32.35;39.92;;
42701;Laerm;28316;49.504;8.526;2023-04-01T23:29:47;37.25;31.68;54.19;;
42701;Laerm;28316;49.504;8.526;2023-04-01T23:32:18;36.86;32.35;39.46;;
42701;Laerm;28316;49.504;8.526;2023-04-01T23:34:51;36.72;28.67;39.58;;
42701;Laerm;28316;49.504;8.526;2023-04-01T23:37:18;36.69;31.68;39.58;;
42701;Laerm;28316;49.504;8.526;2023-04-01T23:39:56;36.83;29.92;60.21;;
42701;Laerm;28316;49.504;8.526;2023-04-01T23:42:32;36.56;29.92;39.70;;
42701;Laerm;28316;49.504;8.526;2023-04-01T23:45:10;36.52;30.89;41.61;;
42701;Laerm;28316;49.504;8.526;2023-04-01T23:47:39;36.40;29.92;39.34;;
42701;Laerm;28316;49.504;8.526;2023-04-01T23:50:14;36.41;29.92;39.81;;
42701;Laerm;28316;49.504;8.526;2023-04-01T23:52:47;36.37;28.32;55.02;;